createdAt,value
2022-11-04T00:02:03.339Z,96.84
2022-11-04T00:04:30.595Z,97.06
2022-11-04T00:06:58.099Z,97.96
2022-11-04T00:09:30.101Z,97.77
2022-11-04T00:12:16.254Z,98.87
2022-11-04T00:14:43.047Z,99.05
2022-11-04T00:17:24.277Z,100.00
2022-11-04T00:20:13.853Z,98.86
2022-11-04T00:23:00.592Z,98.23
2022-11-04T00:25:46.074Z,98.48
2022-11-04T00:28:36.827Z,98.81
2022-11-04T00:31:24.615Z,100.00
2022-11-04T00:33:53.050Z,99.78
2022-11-04T00:36:19.565Z,100.00
2022-11-04T00:38:46.328Z,100.00
2022-11-04T00:41:28.770Z,100.00
2022-11-04T00:43:57.623Z,100.00
2022-11-04T00:46:24.247Z,100.00
2022-11-04T00:48:50.958Z,100.00
2022-11-04T00:51:17.430Z,100.00
2022-11-04T00:53:44.060Z,100.00
2022-11-04T00:56:10.521Z,100.00
2022-11-04T00:58:37.263Z,100.00
2022-11-04T01:01:18.579Z,100.00
2022-11-04T01:03:50.329Z,100.00
2022-11-04T01:06:17.681Z,100.00
2022-11-04T01:08:44.138Z,100.00
2022-11-04T01:11:12.567Z,100.00
2022-11-04T01:13:39.816Z,100.00
2022-11-04T01:16:09.464Z,100.00
2022-11-04T01:18:36.191Z,100.00
2022-11-04T01:21:04.477Z,100.00
2022-11-04T01:23:31.322Z,100.00
2022-11-04T01:25:57.814Z,100.00
2022-11-04T01:28:24.214Z,100.00
2022-11-04T01:30:50.648Z,100.00
2022-11-04T01:33:17.261Z,100.00
2022-11-04T01:35:43.911Z,100.00
2022-11-04T01:38:11.268Z,100.00
2022-11-04T01:40:39.520Z,100.00
2022-11-04T01:43:15.591Z,100.00
2022-11-04T01:45:45.242Z,100.00
2022-11-04T01:48:22.159Z,100.00
2022-11-04T01:50:51.530Z,100.00
2022-11-04T01:53:30.546Z,100.00
2022-11-04T01:56:00.072Z,100.00
2022-11-04T01:58:29.653Z,100.00
2022-11-04T02:00:56.174Z,100.00
2022-11-04T02:03:38.954Z,100.00
2022-11-04T02:06:06.651Z,100.00
2022-11-04T02:08:34.256Z,100.00
2022-11-04T02:11:03.727Z,100.00
2022-11-04T02:13:36.750Z,100.00
2022-11-04T02:16:27.739Z,100.00
2022-11-04T02:19:20.460Z,100.00
2022-11-04T02:21:52.705Z,100.00
2022-11-04T02:24:19.045Z,100.00
2022-11-04T02:27:12.039Z,100.00
2022-11-04T02:30:00.166Z,100.00
2022-11-04T02:32:45.142Z,100.00
2022-11-04T02:35:16.849Z,100.00
2022-11-04T02:38:15.605Z,99.86
2022-11-04T02:41:00.696Z,99.28
2022-11-04T02:43:49.745Z,100.00
2022-11-04T02:46:24.740Z,100.00
2022-11-04T02:49:07.905Z,100.00
2022-11-04T02:52:04.660Z,100.00
2022-11-04T02:54:37.804Z,100.00
2022-11-04T02:57:08.555Z,98.53
2022-11-04T02:59:47.987Z,98.67
2022-11-04T03:02:20.179Z,97.11
2022-11-04T03:04:51.713Z,98.23
2022-11-04T03:07:26.295Z,98.83
2022-11-04T03:10:00.031Z,99.72
2022-11-04T03:12:32.494Z,99.96
2022-11-04T03:15:05.389Z,99.29
2022-11-04T03:18:04.043Z,99.93
2022-11-04T03:20:31.705Z,99.90
2022-11-04T03:23:00.295Z,99.28
2022-11-04T03:25:32.349Z,99.15
2022-11-04T03:28:17.084Z,99.31
2022-11-04T03:30:47.858Z,100.00
2022-11-04T03:33:37.506Z,97.98
2022-11-04T03:36:04.605Z,98.75
2022-11-04T03:38:31.002Z,100.00
2022-11-04T03:41:00.562Z,100.00
2022-11-04T03:43:29.026Z,99.49
2022-11-04T03:45:56.127Z,99.54
2022-11-04T03:48:23.697Z,99.69
2022-11-04T03:50:50.957Z,100.00
2022-11-04T03:53:24.181Z,100.00
2022-11-04T03:56:17.167Z,100.00
2022-11-04T03:58:52.433Z,100.00
2022-11-04T04:01:34.308Z,100.00
2022-11-04T04:04:20.440Z,100.00
2022-11-04T04:06:53.346Z,99.14
2022-11-04T04:09:30.658Z,100.00
2022-11-04T04:12:37.375Z,100.00
2022-11-04T04:15:22.515Z,100.00
2022-11-04T04:18:06.273Z,100.00
2022-11-04T04:20:35.887Z,99.43
2022-11-04T04:23:26.552Z,99.37
2022-11-04T04:26:14.951Z,98.58
2022-11-04T04:28:43.171Z,100.00
2022-11-04T04:31:34.834Z,100.00
2022-11-04T04:34:01.857Z,98.45
2022-11-04T04:36:29.873Z,98.98
2022-11-04T04:39:22.890Z,100.00
2022-11-04T04:42:08.218Z,100.00
2022-11-04T04:44:53.590Z,100.00
2022-11-04T04:47:24.059Z,100.00
2022-11-04T04:49:55.491Z,100.00
2022-11-04T04:52:24.499Z,100.00
2022-11-04T04:54:51.115Z,100.00
2022-11-04T04:57:17.640Z,100.00
2022-11-04T04:59:44.109Z,99.59
2022-11-04T05:02:10.885Z,99.86
2022-11-04T05:04:37.463Z,100.00
2022-11-04T05:07:03.895Z,100.00
2022-11-04T05:09:30.318Z,100.00
2022-11-04T05:11:56.719Z,100.00
2022-11-04T05:14:23.131Z,100.00
2022-11-04T05:16:49.545Z,100.00
2022-11-04T05:19:15.963Z,99.88
2022-11-04T05:21:42.359Z,100.00
2022-11-04T05:24:08.874Z,99.06
2022-11-04T05:26:35.286Z,97.48
2022-11-04T05:29:01.738Z,97.22
2022-11-04T05:31:30.263Z,97.71
2022-11-04T05:33:58.122Z,97.80
2022-11-04T05:36:24.538Z,98.86
2022-11-04T05:38:52.630Z,98.55
2022-11-04T05:41:28.512Z,98.63
2022-11-04T05:43:56.983Z,97.34
2022-11-04T05:46:24.115Z,97.14
2022-11-04T05:48:50.762Z,98.44
2022-11-04T05:51:21.999Z,99.07
2022-11-04T05:53:48.477Z,99.24
2022-11-04T05:56:14.962Z,99.98
2022-11-04T05:58:41.642Z,99.76
2022-11-04T06:01:38.798Z,99.69
2022-11-04T06:04:08.362Z,99.87
2022-11-04T06:06:36.850Z,99.72
2022-11-04T06:09:03.895Z,100.00
2022-11-04T06:11:31.701Z,99.80
2022-11-04T06:13:58.505Z,100.00
2022-11-04T06:16:25.494Z,100.00
2022-11-04T06:18:52.563Z,100.00
2022-11-04T06:21:28.821Z,100.00
2022-11-04T06:23:57.415Z,100.00
2022-11-04T06:26:28.372Z,100.00
2022-11-04T06:28:55.429Z,97.59
2022-11-04T06:31:22.107Z,97.95
2022-11-04T06:33:49.213Z,97.52
2022-11-04T06:36:16.604Z,97.97
2022-11-04T06:38:43.072Z,98.46
2022-11-04T06:41:13.909Z,99.60
2022-11-04T06:43:40.661Z,99.48
2022-11-04T06:46:07.242Z,99.72
2022-11-04T06:48:33.625Z,100.00
2022-11-04T06:51:00.879Z,100.00
2022-11-04T06:53:29.103Z,100.00
2022-11-04T06:56:03.160Z,99.16
2022-11-04T06:58:29.720Z,99.29
2022-11-04T07:00:56.269Z,98.99
2022-11-04T07:03:22.817Z,98.49
2022-11-04T07:05:49.212Z,98.90
2022-11-04T07:08:15.626Z,99.04
2022-11-04T07:10:42.385Z,100.00
2022-11-04T07:13:08.896Z,99.67
2022-11-04T07:15:35.847Z,99.38
2022-11-04T07:18:02.242Z,99.53
2022-11-04T07:20:28.694Z,99.86
2022-11-04T07:22:55.115Z,100.00
2022-11-04T07:25:21.594Z,100.00
2022-11-04T07:27:48.065Z,100.00
2022-11-04T07:30:14.553Z,100.00
2022-11-04T07:32:40.935Z,100.00
2022-11-04T07:35:08.006Z,100.00
2022-11-04T07:37:34.424Z,99.79
2022-11-04T07:40:00.806Z,98.82
2022-11-04T07:42:27.310Z,99.52
2022-11-04T07:44:53.924Z,99.29
2022-11-04T07:47:20.318Z,99.74
2022-11-04T07:49:46.793Z,98.86
2022-11-04T07:52:13.289Z,97.10
2022-11-04T07:54:39.727Z,96.30
2022-11-04T07:57:06.097Z,95.41
2022-11-04T07:59:33.661Z,94.48
2022-11-04T08:02:00.279Z,94.00
2022-11-04T08:04:26.908Z,94.28
2022-11-04T08:06:53.607Z,93.53
2022-11-04T08:09:20.183Z,93.76
2022-11-04T08:11:46.619Z,95.16
2022-11-04T08:14:13.102Z,94.20
2022-11-04T08:16:39.566Z,93.76
2022-11-04T08:19:06.211Z,94.38
2022-11-04T08:21:34.190Z,95.14
2022-11-04T08:24:03.752Z,93.32
2022-11-04T08:26:30.190Z,92.73
2022-11-04T08:28:57.025Z,91.30
2022-11-04T08:31:26.799Z,91.56
2022-11-04T08:33:53.902Z,88.47
2022-11-04T08:36:31.527Z,87.17
2022-11-04T08:38:57.966Z,85.66
2022-11-04T08:41:29.187Z,87.04
2022-11-04T08:43:56.450Z,86.64
2022-11-04T08:46:22.862Z,87.34
2022-11-04T08:48:49.563Z,87.18
2022-11-04T08:51:25.114Z,87.23
2022-11-04T08:53:51.685Z,87.01
2022-11-04T08:56:26.051Z,88.71
2022-11-04T08:58:53.343Z,88.93
2022-11-04T09:01:21.269Z,86.70
2022-11-04T09:03:48.964Z,86.26
2022-11-04T09:06:20.822Z,85.52
2022-11-04T09:08:48.022Z,85.69
2022-11-04T09:11:15.712Z,85.90
2022-11-04T09:13:43.234Z,86.48
2022-11-04T09:16:11.890Z,87.70
2022-11-04T09:18:38.427Z,87.03
2022-11-04T09:21:07.033Z,88.11
2022-11-04T09:23:33.655Z,88.49
2022-11-04T09:26:10.027Z,89.33
2022-11-04T09:28:37.075Z,88.20
2022-11-04T09:31:13.124Z,89.49
2022-11-04T09:33:39.899Z,88.16
2022-11-04T09:36:08.361Z,88.47
2022-11-04T09:38:36.584Z,88.80
2022-11-04T09:41:09.541Z,89.31
2022-11-04T09:43:55.442Z,89.14
2022-11-04T09:46:22.804Z,89.51
2022-11-04T09:48:53.701Z,88.52
2022-11-04T09:51:47.909Z,89.26
2022-11-04T09:54:19.488Z,88.13
2022-11-04T09:56:51.167Z,89.98
2022-11-04T09:59:28.810Z,91.01
2022-11-04T10:02:07.589Z,92.24
2022-11-04T10:04:49.037Z,93.60
2022-11-04T10:07:43.967Z,94.08
2022-11-04T10:10:41.835Z,94.81
2022-11-04T10:13:13.622Z,94.28
2022-11-04T10:15:45.990Z,92.78
2022-11-04T10:18:26.938Z,92.10
2022-11-04T10:21:21.526Z,91.64
2022-11-04T10:23:59.082Z,90.04
2022-11-04T10:26:36.875Z,89.07
2022-11-04T10:29:06.832Z,87.08
2022-11-04T10:31:38.648Z,85.93
2022-11-04T10:34:17.586Z,84.71
2022-11-04T10:36:48.173Z,85.10
2022-11-04T10:39:26.645Z,83.68
2022-11-04T10:41:53.236Z,84.44
2022-11-04T10:44:29.545Z,84.57
2022-11-04T10:47:26.875Z,85.71
2022-11-04T10:50:28.242Z,85.10
2022-11-04T10:53:11.202Z,86.64
2022-11-04T10:55:49.648Z,85.53
2022-11-04T10:58:21.552Z,84.12
2022-11-04T11:00:48.389Z,82.13
2022-11-04T11:03:28.845Z,81.23
2022-11-04T11:06:12.076Z,81.45
2022-11-04T11:08:39.101Z,81.63
2022-11-04T11:11:07.170Z,80.45
2022-11-04T11:13:40.327Z,81.43
2022-11-04T11:16:12.234Z,81.54
2022-11-04T11:18:39.866Z,81.33
2022-11-04T11:21:13.895Z,81.98
2022-11-04T11:23:47.384Z,83.25
2022-11-04T11:26:19.423Z,82.88
2022-11-04T11:28:58.481Z,84.25
2022-11-04T11:31:26.722Z,84.03
2022-11-04T11:33:59.189Z,83.15
2022-11-04T11:36:31.291Z,82.39
2022-11-04T11:39:04.104Z,81.78
2022-11-04T11:41:33.559Z,81.81
2022-11-04T11:44:18.757Z,82.33
2022-11-04T11:46:54.629Z,81.23
2022-11-04T11:49:31.099Z,80.61
2022-11-04T11:52:17.644Z,81.46
2022-11-04T11:54:47.620Z,81.19
2022-11-04T11:57:46.582Z,81.13
2022-11-04T12:00:39.634Z,83.16
2022-11-04T12:03:20.978Z,82.82
2022-11-04T12:09:21.611Z,82.63
2022-11-04T12:12:06.497Z,83.10
2022-11-04T12:15:20.602Z,83.52
2022-11-04T12:18:07.517Z,83.24
2022-11-04T12:20:46.062Z,81.28
2022-11-04T12:23:19.659Z,78.20
2022-11-04T12:26:02.302Z,79.49
2022-11-04T12:28:53.293Z,79.53
2022-11-04T12:31:33.250Z,76.99
2022-11-04T12:34:30.329Z,76.48
2022-11-04T12:37:07.250Z,77.55
2022-11-04T12:40:12.577Z,78.70
2022-11-04T12:42:39.069Z,78.60
2022-11-04T12:45:33.021Z,78.52
2022-11-04T12:48:03.804Z,77.79
2022-11-04T12:50:46.878Z,78.75
2022-11-04T12:53:35.049Z,78.00
2022-11-04T12:56:22.200Z,78.75
2022-11-04T12:59:00.840Z,78.99
2022-11-04T13:01:31.529Z,79.67
2022-11-04T13:04:12.699Z,80.01
2022-11-04T13:06:44.352Z,82.38
2022-11-04T13:09:37.790Z,81.75
2022-11-04T13:12:14.992Z,79.57
2022-11-04T13:15:00.325Z,81.12
2022-11-04T13:17:33.017Z,74.90
2022-11-04T13:20:20.785Z,75.54
2022-11-04T13:22:51.608Z,78.89
2022-11-04T13:25:28.391Z,70.31
2022-11-04T13:27:55.409Z,70.77
2022-11-04T13:30:49.961Z,70.29
2022-11-04T13:33:51.119Z,71.96
2022-11-04T13:36:40.730Z,71.37
2022-11-04T13:39:12.313Z,72.58
2022-11-04T13:42:09.359Z,73.72
2022-11-04T13:44:46.979Z,71.53
2022-11-04T13:47:24.466Z,73.26
2022-11-04T13:49:55.232Z,76.60
2022-11-04T13:52:28.289Z,78.03
2022-11-04T13:54:59.607Z,79.06
2022-11-04T13:57:30.960Z,80.77
2022-11-04T14:00:15.653Z,81.65
2022-11-04T14:02:48.067Z,77.58
2022-11-04T14:05:40.577Z,78.57
2022-11-04T14:08:15.774Z,80.01
2022-11-04T14:10:47.992Z,80.45
2022-11-04T14:13:29.713Z,79.73
2022-11-04T14:16:32.746Z,79.90
2022-11-04T14:19:42.103Z,78.93
2022-11-04T14:22:15.243Z,77.96
2022-11-04T14:24:42.034Z,76.49
2022-11-04T14:27:30.475Z,74.52
2022-11-04T14:29:58.417Z,75.21
2022-11-04T14:32:30.863Z,74.96
2022-11-04T14:35:01.472Z,77.10
2022-11-04T14:37:32.929Z,74.09
2022-11-04T14:40:02.206Z,73.99
2022-11-04T14:42:50.314Z,74.97
2022-11-04T14:45:21.297Z,76.68
2022-11-04T14:47:55.035Z,75.71
2022-11-04T14:50:26.504Z,75.44
2022-11-04T14:52:58.794Z,76.82
2022-11-04T14:55:31.044Z,76.07
2022-11-04T14:58:28.112Z,78.72
2022-11-04T15:01:01.349Z,78.49
2022-11-04T15:06:40.245Z,79.18
2022-11-04T15:09:21.940Z,79.97
2022-11-04T15:12:07.057Z,79.74
2022-11-04T15:14:37.061Z,78.90
2022-11-04T15:17:03.866Z,80.07
2022-11-04T15:19:33.049Z,80.83
2022-11-04T15:22:06.608Z,80.61
2022-11-04T15:24:34.745Z,81.59
2022-11-04T15:27:07.377Z,82.40
2022-11-04T15:29:33.909Z,82.22
2022-11-04T15:32:05.112Z,83.00
2022-11-04T15:34:33.482Z,85.12
2022-11-04T15:37:05.660Z,85.96
2022-11-04T15:39:37.357Z,86.11
2022-11-04T15:42:26.665Z,86.97
2022-11-04T15:44:55.548Z,86.92
2022-11-04T15:47:28.222Z,87.47
2022-11-04T15:50:05.063Z,87.04
2022-11-04T15:52:31.781Z,87.68
2022-11-04T15:55:00.229Z,88.11
2022-11-04T15:57:29.386Z,88.07
2022-11-04T16:00:04.032Z,87.88
2022-11-04T16:02:33.504Z,88.94
2022-11-04T16:05:05.903Z,90.95
2022-11-04T16:07:38.635Z,91.71
2022-11-04T16:10:25.394Z,92.64
2022-11-04T16:12:56.336Z,91.95
2022-11-04T16:15:41.126Z,90.72
2022-11-04T16:18:29.658Z,90.22
2022-11-04T16:20:56.692Z,88.83
2022-11-04T16:23:25.184Z,88.87
2022-11-04T16:26:05.960Z,89.92
2022-11-04T16:28:37.950Z,89.57
2022-11-04T16:31:24.463Z,89.55
2022-11-04T16:33:51.503Z,89.86
2022-11-04T16:36:23.623Z,90.39
2022-11-04T16:38:54.304Z,90.81
2022-11-04T16:41:21.431Z,90.76
2022-11-04T16:43:49.398Z,91.13
2022-11-04T16:46:16.622Z,90.76
2022-11-04T16:48:43.193Z,90.69
2022-11-04T16:51:21.759Z,90.56
2022-11-04T16:53:52.300Z,88.86
2022-11-04T16:56:21.846Z,89.60
2022-11-04T16:58:48.353Z,87.50
2022-11-04T17:01:15.570Z,86.00
2022-11-04T17:03:45.687Z,86.98
2022-11-04T17:06:14.512Z,87.96
2022-11-04T17:08:44.271Z,85.90
2022-11-04T17:11:11.163Z,86.91
2022-11-04T17:13:38.683Z,86.58
2022-11-04T17:16:06.927Z,89.39
2022-11-04T17:18:34.950Z,88.33
2022-11-04T17:21:06.699Z,87.16
2022-11-04T17:23:33.234Z,86.29
2022-11-04T17:25:59.728Z,86.48
2022-11-04T17:28:26.968Z,85.57
2022-11-04T17:30:53.731Z,86.61
2022-11-04T17:33:20.266Z,85.89
2022-11-04T17:35:49.359Z,84.91
2022-11-04T17:38:16.903Z,85.64
2022-11-04T17:41:01.674Z,85.63
2022-11-04T17:43:46.932Z,85.36
2022-11-04T17:46:32.407Z,85.80
2022-11-04T17:48:59.035Z,83.98
2022-11-04T17:51:25.517Z,87.99
2022-11-04T17:53:52.218Z,86.32
2022-11-04T17:56:21.999Z,85.99
2022-11-04T17:58:49.728Z,87.41
2022-11-04T18:01:17.873Z,85.51
2022-11-04T18:03:44.342Z,85.92
2022-11-04T18:06:10.856Z,86.85
2022-11-04T18:08:37.692Z,86.34
2022-11-04T18:11:07.764Z,85.79
2022-11-04T18:13:35.486Z,85.61
2022-11-04T18:16:12.770Z,85.50
2022-11-04T18:18:39.608Z,83.87
2022-11-04T18:21:08.083Z,85.76
2022-11-04T18:23:34.684Z,83.77
2022-11-04T18:26:01.200Z,85.30
2022-11-04T18:28:27.613Z,85.17
2022-11-04T18:30:54.011Z,85.97
2022-11-04T18:33:20.455Z,86.17
2022-11-04T18:35:46.881Z,86.19
2022-11-04T18:38:13.360Z,85.62
2022-11-04T18:40:39.770Z,85.20
2022-11-04T18:43:09.098Z,85.37
2022-11-04T18:45:36.768Z,86.82
2022-11-04T18:48:03.454Z,84.08
2022-11-04T18:50:30.359Z,85.21
2022-11-04T18:52:56.766Z,84.52
2022-11-04T18:55:23.987Z,83.25
2022-11-04T18:57:54.324Z,86.21
2022-11-04T19:00:20.982Z,84.23
2022-11-04T19:02:47.516Z,86.84
2022-11-04T19:05:14.043Z,86.48
2022-11-04T19:07:42.022Z,85.27
2022-11-04T19:10:08.895Z,83.64
2022-11-04T19:12:53.622Z,87.48
2022-11-04T19:15:20.203Z,88.23
2022-11-04T19:17:47.060Z,87.52
2022-11-04T19:20:13.641Z,87.14
2022-11-04T19:22:40.769Z,84.86
2022-11-04T19:25:08.365Z,86.01
2022-11-04T19:27:34.926Z,85.17
2022-11-04T19:30:01.415Z,85.61
2022-11-04T19:32:27.869Z,84.45
2022-11-04T19:34:54.260Z,86.41
2022-11-04T19:37:20.748Z,85.15
2022-11-04T19:39:47.226Z,88.24
2022-11-04T19:42:32.983Z,86.00
2022-11-04T19:44:59.408Z,85.41
2022-11-04T19:47:25.838Z,85.29
2022-11-04T19:49:52.250Z,86.88
2022-11-04T19:52:19.406Z,86.71
2022-11-04T19:54:45.857Z,86.38
2022-11-04T19:57:12.331Z,85.48
2022-11-04T19:59:38.726Z,86.71
2022-11-04T20:02:05.271Z,83.72
2022-11-04T20:04:31.915Z,85.96
2022-11-04T20:06:58.478Z,86.04
2022-11-04T20:09:25.999Z,84.22
2022-11-04T20:12:10.877Z,84.69
2022-11-04T20:14:37.265Z,86.28
2022-11-04T20:17:06.054Z,85.51
2022-11-04T20:19:32.946Z,85.06
2022-11-04T20:21:59.416Z,86.06
2022-11-04T20:24:25.878Z,87.14
2022-11-04T20:26:52.433Z,85.35
2022-11-04T20:29:18.940Z,85.33
2022-11-04T20:31:45.855Z,86.05
2022-11-04T20:34:14.033Z,85.56
2022-11-04T20:36:40.893Z,84.38
2022-11-04T20:39:13.205Z,84.92
2022-11-04T20:41:39.804Z,84.89
2022-11-04T20:44:06.261Z,84.85
2022-11-04T20:46:34.715Z,86.23
2022-11-04T20:49:05.751Z,86.21
2022-11-04T20:51:34.355Z,85.04
2022-11-04T20:54:03.803Z,86.08
2022-11-04T20:56:32.532Z,86.43
2022-11-04T20:59:00.405Z,84.80
2022-11-04T21:01:30.554Z,86.12
2022-11-04T21:04:01.313Z,86.58
2022-11-04T21:06:28.823Z,86.40
2022-11-04T21:08:56.104Z,86.46
2022-11-04T21:11:24.353Z,85.62
2022-11-04T21:13:55.139Z,84.97
2022-11-04T21:16:21.863Z,87.00
2022-11-04T21:18:48.344Z,84.92
2022-11-04T21:21:16.118Z,86.00
2022-11-04T21:23:42.951Z,86.51
2022-11-04T21:26:13.760Z,85.99
2022-11-04T21:28:40.483Z,86.03
2022-11-04T21:31:10.035Z,84.22
2022-11-04T21:33:37.055Z,86.06
2022-11-04T21:36:08.060Z,86.62
2022-11-04T21:38:35.223Z,85.18
2022-11-04T21:41:13.097Z,87.09
2022-11-04T21:43:40.364Z,85.74
2022-11-04T21:46:13.250Z,85.24
2022-11-04T21:48:40.495Z,84.75
2022-11-04T21:51:16.019Z,83.02
2022-11-04T21:53:43.201Z,84.96
2022-11-04T21:56:23.704Z,86.41
2022-11-04T21:58:51.357Z,86.10
2022-11-04T22:01:20.730Z,86.27
2022-11-04T22:03:54.661Z,87.10
2022-11-04T22:06:21.721Z,86.53
2022-11-04T22:08:53.761Z,84.80
2022-11-04T22:11:23.917Z,84.71
2022-11-04T22:14:01.846Z,85.57
2022-11-04T22:16:31.735Z,86.14
2022-11-04T22:19:00.492Z,86.96
2022-11-04T22:21:28.410Z,86.34
2022-11-04T22:23:55.463Z,86.05
2022-11-04T22:26:24.819Z,86.17
2022-11-04T22:28:52.334Z,85.22
2022-11-04T22:31:34.052Z,86.32
2022-11-04T22:34:01.446Z,86.04
2022-11-04T22:36:29.139Z,87.30
2022-11-04T22:38:56.220Z,86.04
2022-11-04T22:41:28.382Z,86.38
2022-11-04T22:43:56.087Z,85.64
2022-11-04T22:46:26.603Z,85.73
2022-11-04T22:48:53.256Z,85.52
2022-11-04T22:51:20.089Z,85.36
2022-11-04T22:53:51.308Z,86.14
2022-11-04T22:56:21.463Z,84.99
2022-11-04T22:58:47.868Z,85.40
2022-11-04T23:01:15.131Z,85.30
2022-11-04T23:03:42.092Z,86.42
2022-11-04T23:06:09.336Z,86.66
2022-11-04T23:08:36.406Z,86.48
2022-11-04T23:11:25.695Z,86.58
2022-11-04T23:14:19.795Z,87.75
2022-11-04T23:17:08.010Z,86.21
2022-11-04T23:19:34.543Z,85.70
2022-11-04T23:22:19.676Z,86.83
2022-11-04T23:25:04.603Z,86.51
2022-11-04T23:27:53.523Z,86.48
2022-11-04T23:30:21.088Z,85.68
2022-11-04T23:32:54.837Z,86.43
2022-11-04T23:35:42.622Z,85.15
2022-11-04T23:38:09.447Z,86.27
2022-11-04T23:40:36.167Z,85.93
2022-11-04T23:43:02.622Z,86.36
2022-11-04T23:45:48.650Z,86.79
2022-11-04T23:48:34.120Z,85.89
2022-11-04T23:51:19.984Z,86.48
2022-11-04T23:54:05.880Z,86.30
2022-11-04T23:56:51.322Z,86.90
2022-11-04T23:59:37.098Z,87.21
